sensor_id;sensor_type;location;lat;lon;timestamp;P1;durP1;ratioP1;P2;durP2;ratioP2
17482;SDS011;8858;52.308;20.994;2023-04-30T00:00:19;11.60;;;10.50;;
17482;SDS011;8858;52.308;20.994;2023-04-30T00:02:47;11.53;;;10.33;;
17482;SDS011;8858;52.308;20.994;2023-04-30T00:05:16;11.97;;;10.83;;
17482;SDS011;8858;52.308;20.994;2023-04-30T00:07:44;12.40;;;11.13;;
17482;SDS011;8858;52.308;20.994;2023-04-30T00:10:14;11.97;;;10.77;;
17482;SDS011;8858;52.308;20.994;2023-04-30T00:12:43;13.10;;;10.77;;
17482;SDS011;8858;52.308;20.994;2023-04-30T00:15:11;14.70;;;10.97;;
17482;SDS011;8858;52.308;20.994;2023-04-30T00:17:39;12.30;;;11.07;;
17482;SDS011;8858;52.308;20.994;2023-04-30T00:20:07;12.87;;;11.27;;
17482;SDS011;8858;52.308;20.994;2023-04-30T00:22:38;13.63;;;11.00;;
17482;SDS011;8858;52.308;20.994;2023-04-30T00:25:07;14.23;;;11.40;;
17482;SDS011;8858;52.308;20.994;2023-04-30T00:27:40;14.17;;;12.47;;
17482;SDS011;8858;52.308;20.994;2023-04-30T00:30:09;13.07;;;11.67;;
17482;SDS011;8858;52.308;20.994;2023-04-30T00:32:41;13.33;;;12.03;;
17482;SDS011;8858;52.308;20.994;2023-04-30T00:35:11;12.90;;;11.70;;
17482;SDS011;8858;52.308;20.994;2023-04-30T00:37:40;12.53;;;11.33;;
17482;SDS011;8858;52.308;20.994;2023-04-30T00:40:08;14.63;;;12.33;;
17482;SDS011;8858;52.308;20.994;2023-04-30T00:42:38;15.67;;;13.17;;
17482;SDS011;8858;52.308;20.994;2023-04-30T00:45:11;13.60;;;12.23;;
17482;SDS011;8858;52.308;20.994;2023-04-30T00:47:40;13.43;;;12.23;;
17482;SDS011;8858;52.308;20.994;2023-04-30T00:50:08;16.73;;;13.23;;
17482;SDS011;8858;52.308;20.994;2023-04-30T00:52:42;14.33;;;12.93;;
17482;SDS011;8858;52.308;20.994;2023-04-30T00:55:11;13.77;;;12.33;;
17482;SDS011;8858;52.308;20.994;2023-04-30T00:57:44;13.67;;;12.37;;
17482;SDS011;8858;52.308;20.994;2023-04-30T01:00:14;16.33;;;13.97;;
17482;SDS011;8858;52.308;20.994;2023-04-30T01:02:50;16.03;;;14.53;;
17482;SDS011;8858;52.308;20.994;2023-04-30T01:05:18;16.63;;;15.00;;
17482;SDS011;8858;52.308;20.994;2023-04-30T01:07:48;17.50;;;15.70;;
17482;SDS011;8858;52.308;20.994;2023-04-30T01:10:18;17.40;;;15.70;;
17482;SDS011;8858;52.308;20.994;2023-04-30T01:12:52;17.80;;;15.90;;
17482;SDS011;8858;52.308;20.994;2023-04-30T01:15:29;17.83;;;15.87;;
17482;SDS011;8858;52.308;20.994;2023-04-30T01:18:11;19.17;;;16.50;;
17482;SDS011;8858;52.308;20.994;2023-04-30T01:20:46;18.83;;;16.00;;
17482;SDS011;8858;52.308;20.994;2023-04-30T01:23:18;18.03;;;16.23;;
17482;SDS011;8858;52.308;20.994;2023-04-30T01:26:01;18.73;;;16.80;;
17482;SDS011;8858;52.308;20.994;2023-04-30T01:28:39;18.27;;;16.30;;
17482;SDS011;8858;52.308;20.994;2023-04-30T01:31:14;18.13;;;16.20;;
17482;SDS011;8858;52.308;20.994;2023-04-30T01:33:45;17.00;;;15.13;;
17482;SDS011;8858;52.308;20.994;2023-04-30T01:36:20;18.53;;;15.23;;
17482;SDS011;8858;52.308;20.994;2023-04-30T01:39:04;16.60;;;14.93;;
17482;SDS011;8858;52.308;20.994;2023-04-30T01:41:45;16.00;;;14.30;;
17482;SDS011;8858;52.308;20.994;2023-04-30T01:44:26;15.27;;;13.77;;
17482;SDS011;8858;52.308;20.994;2023-04-30T01:47:08;16.23;;;14.43;;
17482;SDS011;8858;52.308;20.994;2023-04-30T01:49:55;16.40;;;14.70;;
17482;SDS011;8858;52.308;20.994;2023-04-30T01:52:44;15.33;;;13.73;;
17482;SDS011;8858;52.308;20.994;2023-04-30T01:55:17;17.37;;;13.60;;
17482;SDS011;8858;52.308;20.994;2023-04-30T01:57:54;15.37;;;12.87;;
17482;SDS011;8858;52.308;20.994;2023-04-30T02:00:27;14.17;;;12.73;;
17482;SDS011;8858;52.308;20.994;2023-04-30T02:03:20;13.80;;;12.40;;
17482;SDS011;8858;52.308;20.994;2023-04-30T02:05:49;14.23;;;12.83;;
17482;SDS011;8858;52.308;20.994;2023-04-30T02:08:17;13.50;;;12.20;;
17482;SDS011;8858;52.308;20.994;2023-04-30T02:10:46;13.27;;;11.97;;
17482;SDS011;8858;52.308;20.994;2023-04-30T02:13:15;13.20;;;11.90;;
17482;SDS011;8858;52.308;20.994;2023-04-30T02:15:45;13.10;;;11.80;;
17482;SDS011;8858;52.308;20.994;2023-04-30T02:18:16;14.07;;;11.63;;
17482;SDS011;8858;52.308;20.994;2023-04-30T02:20:45;13.30;;;12.10;;
17482;SDS011;8858;52.308;20.994;2023-04-30T02:23:14;13.20;;;11.90;;
17482;SDS011;8858;52.308;20.994;2023-04-30T02:25:46;13.73;;;11.47;;
17482;SDS011;8858;52.308;20.994;2023-04-30T02:28:15;12.77;;;11.47;;
17482;SDS011;8858;52.308;20.994;2023-04-30T02:30:46;13.13;;;11.60;;
17482;SDS011;8858;52.308;20.994;2023-04-30T02:33:15;13.37;;;11.97;;
17482;SDS011;8858;52.308;20.994;2023-04-30T02:35:45;17.33;;;15.60;;
17482;SDS011;8858;52.308;20.994;2023-04-30T02:38:14;12.90;;;11.60;;
17482;SDS011;8858;52.308;20.994;2023-04-30T02:40:42;13.17;;;11.83;;
17482;SDS011;8858;52.308;20.994;2023-04-30T02:43:12;13.37;;;11.90;;
17482;SDS011;8858;52.308;20.994;2023-04-30T02:45:41;13.93;;;12.53;;
17482;SDS011;8858;52.308;20.994;2023-04-30T02:48:10;13.43;;;12.10;;
17482;SDS011;8858;52.308;20.994;2023-04-30T02:50:39;15.03;;;13.47;;
17482;SDS011;8858;52.308;20.994;2023-04-30T02:53:08;13.57;;;12.30;;
17482;SDS011;8858;52.308;20.994;2023-04-30T02:56:01;14.10;;;12.70;;
17482;SDS011;8858;52.308;20.994;2023-04-30T02:58:30;13.13;;;11.93;;
17482;SDS011;8858;52.308;20.994;2023-04-30T03:00:59;12.97;;;11.77;;
17482;SDS011;8858;52.308;20.994;2023-04-30T03:03:28;12.83;;;11.63;;
17482;SDS011;8858;52.308;20.994;2023-04-30T03:05:57;14.40;;;11.23;;
17482;SDS011;8858;52.308;20.994;2023-04-30T03:08:25;11.90;;;10.77;;
17482;SDS011;8858;52.308;20.994;2023-04-30T03:10:54;12.57;;;11.27;;
17482;SDS011;8858;52.308;20.994;2023-04-30T03:13:22;12.90;;;11.63;;
17482;SDS011;8858;52.308;20.994;2023-04-30T03:15:55;12.07;;;10.97;;
17482;SDS011;8858;52.308;20.994;2023-04-30T03:18:25;12.33;;;11.20;;
17482;SDS011;8858;52.308;20.994;2023-04-30T03:20:55;13.20;;;11.97;;
17482;SDS011;8858;52.308;20.994;2023-04-30T03:23:26;13.60;;;12.17;;
17482;SDS011;8858;52.308;20.994;2023-04-30T03:25:55;14.07;;;12.77;;
17482;SDS011;8858;52.308;20.994;2023-04-30T03:28:24;14.77;;;13.23;;
17482;SDS011;8858;52.308;20.994;2023-04-30T03:30:53;13.47;;;12.17;;
17482;SDS011;8858;52.308;20.994;2023-04-30T03:33:22;13.57;;;12.17;;
17482;SDS011;8858;52.308;20.994;2023-04-30T03:35:51;13.30;;;11.90;;
17482;SDS011;8858;52.308;20.994;2023-04-30T03:38:21;11.53;;;10.33;;
17482;SDS011;8858;52.308;20.994;2023-04-30T03:40:50;10.20;;;9.20;;
17482;SDS011;8858;52.308;20.994;2023-04-30T03:43:20;9.43;;;8.20;;
17482;SDS011;8858;52.308;20.994;2023-04-30T03:45:49;9.13;;;7.90;;
17482;SDS011;8858;52.308;20.994;2023-04-30T03:48:18;9.70;;;7.43;;
17482;SDS011;8858;52.308;20.994;2023-04-30T03:50:48;10.73;;;7.50;;
17482;SDS011;8858;52.308;20.994;2023-04-30T03:53:16;9.80;;;6.40;;
17482;SDS011;8858;52.308;20.994;2023-04-30T03:55:49;7.57;;;6.57;;
17482;SDS011;8858;52.308;20.994;2023-04-30T03:58:20;6.83;;;6.13;;
17482;SDS011;8858;52.308;20.994;2023-04-30T04:00:48;7.03;;;5.90;;
17482;SDS011;8858;52.308;20.994;2023-04-30T04:03:17;6.53;;;5.50;;
17482;SDS011;8858;52.308;20.994;2023-04-30T04:05:46;6.87;;;5.83;;
17482;SDS011;8858;52.308;20.994;2023-04-30T04:08:17;7.27;;;5.77;;
17482;SDS011;8858;52.308;20.994;2023-04-30T04:10:47;8.80;;;7.20;;
17482;SDS011;8858;52.308;20.994;2023-04-30T04:13:17;7.83;;;6.17;;
17482;SDS011;8858;52.308;20.994;2023-04-30T04:15:46;8.83;;;6.33;;
17482;SDS011;8858;52.308;20.994;2023-04-30T04:18:14;9.33;;;6.90;;
17482;SDS011;8858;52.308;20.994;2023-04-30T04:20:44;7.53;;;6.53;;
17482;SDS011;8858;52.308;20.994;2023-04-30T04:23:14;8.37;;;6.77;;
17482;SDS011;8858;52.308;20.994;2023-04-30T04:25:43;9.30;;;6.60;;
17482;SDS011;8858;52.308;20.994;2023-04-30T04:28:13;6.47;;;5.87;;
17482;SDS011;8858;52.308;20.994;2023-04-30T04:30:42;6.97;;;6.30;;
17482;SDS011;8858;52.308;20.994;2023-04-30T04:33:11;6.30;;;5.70;;
17482;SDS011;8858;52.308;20.994;2023-04-30T04:35:40;9.30;;;6.47;;
17482;SDS011;8858;52.308;20.994;2023-04-30T04:38:08;6.57;;;5.97;;
17482;SDS011;8858;52.308;20.994;2023-04-30T04:40:36;8.27;;;5.93;;
17482;SDS011;8858;52.308;20.994;2023-04-30T04:43:05;7.07;;;5.57;;
17482;SDS011;8858;52.308;20.994;2023-04-30T04:45:35;7.30;;;5.97;;
17482;SDS011;8858;52.308;20.994;2023-04-30T04:48:06;7.60;;;6.30;;
17482;SDS011;8858;52.308;20.994;2023-04-30T04:50:34;8.67;;;7.20;;
17482;SDS011;8858;52.308;20.994;2023-04-30T04:53:02;6.87;;;6.17;;
17482;SDS011;8858;52.308;20.994;2023-04-30T04:55:31;6.87;;;6.17;;
17482;SDS011;8858;52.308;20.994;2023-04-30T04:58:00;10.77;;;6.60;;
17482;SDS011;8858;52.308;20.994;2023-04-30T05:00:29;7.20;;;6.37;;
17482;SDS011;8858;52.308;20.994;2023-04-30T05:02:59;9.27;;;6.97;;
17482;SDS011;8858;52.308;20.994;2023-04-30T05:05:30;8.10;;;7.30;;
17482;SDS011;8858;52.308;20.994;2023-04-30T05:07:59;8.47;;;7.13;;
17482;SDS011;8858;52.308;20.994;2023-04-30T05:10:29;8.97;;;7.63;;
17482;SDS011;8858;52.308;20.994;2023-04-30T05:12:58;8.23;;;7.40;;
17482;SDS011;8858;52.308;20.994;2023-04-30T05:15:27;8.70;;;7.70;;
17482;SDS011;8858;52.308;20.994;2023-04-30T05:17:59;10.03;;;8.37;;
17482;SDS011;8858;52.308;20.994;2023-04-30T05:20:27;10.87;;;7.90;;
17482;SDS011;8858;52.308;20.994;2023-04-30T05:22:55;9.67;;;7.97;;
17482;SDS011;8858;52.308;20.994;2023-04-30T05:25:24;11.87;;;9.37;;
17482;SDS011;8858;52.308;20.994;2023-04-30T05:27:52;11.93;;;8.97;;
17482;SDS011;8858;52.308;20.994;2023-04-30T05:30:24;12.67;;;9.40;;
17482;SDS011;8858;52.308;20.994;2023-04-30T05:32:53;10.63;;;9.47;;
17482;SDS011;8858;52.308;20.994;2023-04-30T05:35:24;11.30;;;10.10;;
17482;SDS011;8858;52.308;20.994;2023-04-30T05:37:53;12.03;;;10.13;;
17482;SDS011;8858;52.308;20.994;2023-04-30T05:40:21;11.93;;;9.87;;
17482;SDS011;8858;52.308;20.994;2023-04-30T05:42:53;10.53;;;9.53;;
17482;SDS011;8858;52.308;20.994;2023-04-30T05:45:22;12.67;;;10.03;;
17482;SDS011;8858;52.308;20.994;2023-04-30T05:47:51;11.20;;;9.43;;
17482;SDS011;8858;52.308;20.994;2023-04-30T05:50:20;13.77;;;9.93;;
17482;SDS011;8858;52.308;20.994;2023-04-30T05:52:50;11.37;;;9.57;;
17482;SDS011;8858;52.308;20.994;2023-04-30T05:55:21;11.40;;;9.87;;
17482;SDS011;8858;52.308;20.994;2023-04-30T05:57:49;10.67;;;9.17;;
17482;SDS011;8858;52.308;20.994;2023-04-30T06:00:22;15.73;;;10.40;;
17482;SDS011;8858;52.308;20.994;2023-04-30T06:02:50;11.10;;;9.70;;
17482;SDS011;8858;52.308;20.994;2023-04-30T06:05:20;15.63;;;9.00;;
17482;SDS011;8858;52.308;20.994;2023-04-30T06:07:49;11.10;;;9.57;;
17482;SDS011;8858;52.308;20.994;2023-04-30T06:10:18;10.40;;;9.13;;
17482;SDS011;8858;52.308;20.994;2023-04-30T06:12:46;9.10;;;8.20;;
17482;SDS011;8858;52.308;20.994;2023-04-30T06:15:17;8.97;;;7.63;;
17482;SDS011;8858;52.308;20.994;2023-04-30T06:17:45;7.97;;;7.17;;
17482;SDS011;8858;52.308;20.994;2023-04-30T06:20:16;10.83;;;7.73;;
17482;SDS011;8858;52.308;20.994;2023-04-30T06:22:45;8.97;;;7.43;;
17482;SDS011;8858;52.308;20.994;2023-04-30T06:25:15;9.23;;;7.33;;
17482;SDS011;8858;52.308;20.994;2023-04-30T06:27:45;7.73;;;5.30;;
17482;SDS011;8858;52.308;20.994;2023-04-30T06:30:13;7.17;;;5.50;;
17482;SDS011;8858;52.308;20.994;2023-04-30T06:32:44;5.70;;;5.03;;
17482;SDS011;8858;52.308;20.994;2023-04-30T06:35:12;7.73;;;5.53;;
17482;SDS011;8858;52.308;20.994;2023-04-30T06:37:40;9.23;;;6.87;;
17482;SDS011;8858;52.308;20.994;2023-04-30T06:40:12;9.43;;;8.13;;
17482;SDS011;8858;52.308;20.994;2023-04-30T06:42:41;9.77;;;8.47;;
17482;SDS011;8858;52.308;20.994;2023-04-30T06:45:12;11.47;;;9.30;;
17482;SDS011;8858;52.308;20.994;2023-04-30T06:47:41;11.30;;;8.30;;
17482;SDS011;8858;52.308;20.994;2023-04-30T06:50:11;11.90;;;7.87;;
17482;SDS011;8858;52.308;20.994;2023-04-30T06:52:43;9.23;;;7.03;;
17482;SDS011;8858;52.308;20.994;2023-04-30T06:55:11;11.20;;;6.10;;
17482;SDS011;8858;52.308;20.994;2023-04-30T06:57:45;7.13;;;6.33;;
17482;SDS011;8858;52.308;20.994;2023-04-30T07:00:13;8.03;;;5.80;;
17482;SDS011;8858;52.308;20.994;2023-04-30T07:02:42;9.87;;;5.83;;
17482;SDS011;8858;52.308;20.994;2023-04-30T07:05:13;9.83;;;5.93;;
17482;SDS011;8858;52.308;20.994;2023-04-30T07:07:41;7.83;;;5.17;;
17482;SDS011;8858;52.308;20.994;2023-04-30T07:10:09;6.27;;;5.10;;
17482;SDS011;8858;52.308;20.994;2023-04-30T07:12:38;6.63;;;4.93;;
17482;SDS011;8858;52.308;20.994;2023-04-30T07:15:08;6.23;;;3.63;;
17482;SDS011;8858;52.308;20.994;2023-04-30T07:17:36;7.43;;;3.30;;
17482;SDS011;8858;52.308;20.994;2023-04-30T07:20:07;6.20;;;3.57;;
17482;SDS011;8858;52.308;20.994;2023-04-30T07:22:36;6.70;;;3.50;;
17482;SDS011;8858;52.308;20.994;2023-04-30T07:25:05;5.60;;;3.20;;
17482;SDS011;8858;52.308;20.994;2023-04-30T07:27:33;6.33;;;3.13;;
17482;SDS011;8858;52.308;20.994;2023-04-30T07:30:06;8.57;;;4.03;;
17482;SDS011;8858;52.308;20.994;2023-04-30T07:32:36;7.67;;;4.23;;
17482;SDS011;8858;52.308;20.994;2023-04-30T07:35:09;7.80;;;3.93;;
17482;SDS011;8858;52.308;20.994;2023-04-30T07:37:37;6.03;;;3.60;;
17482;SDS011;8858;52.308;20.994;2023-04-30T07:40:07;5.00;;;3.83;;
17482;SDS011;8858;52.308;20.994;2023-04-30T07:42:45;6.93;;;3.97;;
17482;SDS011;8858;52.308;20.994;2023-04-30T07:45:15;6.63;;;3.43;;
17482;SDS011;8858;52.308;20.994;2023-04-30T07:47:44;5.63;;;3.20;;
17482;SDS011;8858;52.308;20.994;2023-04-30T07:50:13;6.53;;;3.40;;
17482;SDS011;8858;52.308;20.994;2023-04-30T07:52:42;5.67;;;3.40;;
17482;SDS011;8858;52.308;20.994;2023-04-30T07:55:10;10.27;;;2.93;;
17482;SDS011;8858;52.308;20.994;2023-04-30T07:57:38;4.73;;;3.03;;
17482;SDS011;8858;52.308;20.994;2023-04-30T08:00:08;6.07;;;3.30;;
17482;SDS011;8858;52.308;20.994;2023-04-30T08:02:40;3.77;;;2.93;;
17482;SDS011;8858;52.308;20.994;2023-04-30T08:05:11;6.07;;;3.23;;
17482;SDS011;8858;52.308;20.994;2023-04-30T08:07:39;5.67;;;3.40;;
17482;SDS011;8858;52.308;20.994;2023-04-30T08:10:11;5.47;;;3.90;;
17482;SDS011;8858;52.308;20.994;2023-04-30T08:12:39;5.37;;;4.23;;
17482;SDS011;8858;52.308;20.994;2023-04-30T08:15:07;6.40;;;4.57;;
17482;SDS011;8858;52.308;20.994;2023-04-30T08:17:37;7.50;;;4.27;;
17482;SDS011;8858;52.308;20.994;2023-04-30T08:20:07;6.63;;;4.40;;
17482;SDS011;8858;52.308;20.994;2023-04-30T08:22:36;6.20;;;4.13;;
17482;SDS011;8858;52.308;20.994;2023-04-30T08:25:08;7.07;;;3.90;;
17482;SDS011;8858;52.308;20.994;2023-04-30T08:27:38;7.33;;;3.80;;
17482;SDS011;8858;52.308;20.994;2023-04-30T08:30:06;5.30;;;3.90;;
17482;SDS011;8858;52.308;20.994;2023-04-30T08:32:35;5.23;;;3.53;;
17482;SDS011;8858;52.308;20.994;2023-04-30T08:35:04;4.13;;;2.97;;
17482;SDS011;8858;52.308;20.994;2023-04-30T08:37:35;5.90;;;3.23;;
17482;SDS011;8858;52.308;20.994;2023-04-30T08:40:03;4.83;;;3.20;;
17482;SDS011;8858;52.308;20.994;2023-04-30T08:42:36;5.97;;;3.13;;
17482;SDS011;8858;52.308;20.994;2023-04-30T08:45:08;7.63;;;3.60;;
17482;SDS011;8858;52.308;20.994;2023-04-30T08:47:42;4.40;;;3.53;;
17482;SDS011;8858;52.308;20.994;2023-04-30T08:50:11;4.40;;;3.60;;
17482;SDS011;8858;52.308;20.994;2023-04-30T08:52:41;7.33;;;4.00;;
17482;SDS011;8858;52.308;20.994;2023-04-30T08:55:11;6.93;;;4.30;;
17482;SDS011;8858;52.308;20.994;2023-04-30T08:57:39;6.00;;;3.77;;
17482;SDS011;8858;52.308;20.994;2023-04-30T09:00:08;5.13;;;3.50;;
17482;SDS011;8858;52.308;20.994;2023-04-30T09:02:38;4.87;;;3.83;;
17482;SDS011;8858;52.308;20.994;2023-04-30T09:05:08;5.70;;;3.57;;
17482;SDS011;8858;52.308;20.994;2023-04-30T09:07:41;8.00;;;4.40;;
17482;SDS011;8858;52.308;20.994;2023-04-30T09:10:15;5.30;;;3.50;;
17482;SDS011;8858;52.308;20.994;2023-04-30T09:12:56;3.70;;;3.40;;
17482;SDS011;8858;52.308;20.994;2023-04-30T09:15:26;5.97;;;3.87;;
17482;SDS011;8858;52.308;20.994;2023-04-30T09:18:07;4.90;;;3.03;;
17482;SDS011;8858;52.308;20.994;2023-04-30T09:20:52;5.73;;;3.10;;
17482;SDS011;8858;52.308;20.994;2023-04-30T09:23:23;4.60;;;3.20;;
17482;SDS011;8858;52.308;20.994;2023-04-30T09:25:52;5.37;;;3.00;;
17482;SDS011;8858;52.308;20.994;2023-04-30T09:28:21;6.50;;;3.23;;
17482;SDS011;8858;52.308;20.994;2023-04-30T09:30:52;6.80;;;3.30;;
17482;SDS011;8858;52.308;20.994;2023-04-30T09:33:23;4.20;;;2.50;;
17482;SDS011;8858;52.308;20.994;2023-04-30T09:35:51;5.63;;;2.57;;
17482;SDS011;8858;52.308;20.994;2023-04-30T09:38:27;4.83;;;2.50;;
17482;SDS011;8858;52.308;20.994;2023-04-30T09:40:57;5.53;;;2.47;;
17482;SDS011;8858;52.308;20.994;2023-04-30T09:43:27;4.27;;;2.07;;
17482;SDS011;8858;52.308;20.994;2023-04-30T09:45:56;4.03;;;2.10;;
17482;SDS011;8858;52.308;20.994;2023-04-30T09:48:26;3.60;;;1.93;;
17482;SDS011;8858;52.308;20.994;2023-04-30T09:50:54;4.17;;;2.60;;
17482;SDS011;8858;52.308;20.994;2023-04-30T09:53:23;4.97;;;2.40;;
17482;SDS011;8858;52.308;20.994;2023-04-30T09:55:54;4.93;;;2.20;;
17482;SDS011;8858;52.308;20.994;2023-04-30T09:58:25;3.87;;;2.10;;
17482;SDS011;8858;52.308;20.994;2023-04-30T10:00:57;4.17;;;1.90;;
17482;SDS011;8858;52.308;20.994;2023-04-30T10:03:27;5.10;;;2.10;;
17482;SDS011;8858;52.308;20.994;2023-04-30T10:05:58;4.60;;;2.60;;
17482;SDS011;8858;52.308;20.994;2023-04-30T10:08:29;3.97;;;2.13;;
17482;SDS011;8858;52.308;20.994;2023-04-30T10:11:03;4.73;;;2.00;;
17482;SDS011;8858;52.308;20.994;2023-04-30T10:13:34;4.97;;;2.20;;
17482;SDS011;8858;52.308;20.994;2023-04-30T10:16:11;5.47;;;2.40;;
17482;SDS011;8858;52.308;20.994;2023-04-30T10:18:45;4.23;;;1.93;;
17482;SDS011;8858;52.308;20.994;2023-04-30T10:21:16;6.00;;;2.10;;
17482;SDS011;8858;52.308;20.994;2023-04-30T10:23:47;3.57;;;1.70;;
17482;SDS011;8858;52.308;20.994;2023-04-30T10:26:18;2.73;;;1.67;;
17482;SDS011;8858;52.308;20.994;2023-04-30T10:28:47;2.73;;;1.50;;
17482;SDS011;8858;52.308;20.994;2023-04-30T10:31:17;2.40;;;1.30;;
17482;SDS011;8858;52.308;20.994;2023-04-30T10:33:49;4.13;;;1.50;;
17482;SDS011;8858;52.308;20.994;2023-04-30T10:36:28;3.27;;;1.40;;
17482;SDS011;8858;52.308;20.994;2023-04-30T10:39:04;1.77;;;1.13;;
17482;SDS011;8858;52.308;20.994;2023-04-30T10:41:33;1.47;;;1.37;;
17482;SDS011;8858;52.308;20.994;2023-04-30T10:44:02;4.10;;;1.50;;
17482;SDS011;8858;52.308;20.994;2023-04-30T10:46:33;5.97;;;4.03;;
17482;SDS011;8858;52.308;20.994;2023-04-30T10:49:03;2.50;;;1.50;;
17482;SDS011;8858;52.308;20.994;2023-04-30T10:51:48;4.20;;;1.70;;
17482;SDS011;8858;52.308;20.994;2023-04-30T10:54:21;4.07;;;1.90;;
17482;SDS011;8858;52.308;20.994;2023-04-30T10:57:00;4.77;;;1.70;;
17482;SDS011;8858;52.308;20.994;2023-04-30T10:59:49;3.70;;;1.50;;
17482;SDS011;8858;52.308;20.994;2023-04-30T11:02:20;5.30;;;1.80;;
17482;SDS011;8858;52.308;20.994;2023-04-30T11:05:08;4.87;;;1.50;;
17482;SDS011;8858;52.308;20.994;2023-04-30T11:07:45;2.77;;;1.30;;
17482;SDS011;8858;52.308;20.994;2023-04-30T11:10:15;4.70;;;1.73;;
17482;SDS011;8858;52.308;20.994;2023-04-30T11:12:49;2.10;;;1.43;;
17482;SDS011;8858;52.308;20.994;2023-04-30T11:15:19;2.43;;;1.53;;
17482;SDS011;8858;52.308;20.994;2023-04-30T11:17:48;6.37;;;1.63;;
17482;SDS011;8858;52.308;20.994;2023-04-30T11:20:22;1.90;;;1.70;;
17482;SDS011;8858;52.308;20.994;2023-04-30T11:25:38;2.17;;;1.30;;
17482;SDS011;8858;52.308;20.994;2023-04-30T11:28:12;2.40;;;2.00;;
17482;SDS011;8858;52.308;20.994;2023-04-30T11:30:50;5.70;;;3.27;;
17482;SDS011;8858;52.308;20.994;2023-04-30T11:33:19;2.90;;;1.67;;
17482;SDS011;8858;52.308;20.994;2023-04-30T11:35:48;3.23;;;1.70;;
17482;SDS011;8858;52.308;20.994;2023-04-30T11:38:19;4.67;;;1.23;;
17482;SDS011;8858;52.308;20.994;2023-04-30T11:40:49;2.60;;;1.47;;
17482;SDS011;8858;52.308;20.994;2023-04-30T11:43:23;3.33;;;1.50;;
17482;SDS011;8858;52.308;20.994;2023-04-30T11:46:05;3.60;;;1.70;;
17482;SDS011;8858;52.308;20.994;2023-04-30T11:48:37;6.10;;;1.90;;
17482;SDS011;8858;52.308;20.994;2023-04-30T11:51:15;4.97;;;1.60;;
17482;SDS011;8858;52.308;20.994;2023-04-30T11:53:45;1.90;;;1.50;;
17482;SDS011;8858;52.308;20.994;2023-04-30T11:56:16;2.83;;;1.90;;
17482;SDS011;8858;52.308;20.994;2023-04-30T11:58:50;2.70;;;1.50;;
17482;SDS011;8858;52.308;20.994;2023-04-30T12:01:20;2.77;;;1.40;;
17482;SDS011;8858;52.308;20.994;2023-04-30T12:03:49;3.07;;;1.67;;
17482;SDS011;8858;52.308;20.994;2023-04-30T12:06:22;5.37;;;1.60;;
17482;SDS011;8858;52.308;20.994;2023-04-30T12:08:52;2.10;;;1.40;;
17482;SDS011;8858;52.308;20.994;2023-04-30T12:11:21;1.77;;;1.53;;
17482;SDS011;8858;52.308;20.994;2023-04-30T12:13:54;2.83;;;1.87;;
17482;SDS011;8858;52.308;20.994;2023-04-30T12:16:24;3.60;;;1.50;;
17482;SDS011;8858;52.308;20.994;2023-04-30T12:18:55;2.07;;;1.47;;
17482;SDS011;8858;52.308;20.994;2023-04-30T12:21:24;5.93;;;1.20;;
17482;SDS011;8858;52.308;20.994;2023-04-30T12:23:55;3.53;;;1.40;;
17482;SDS011;8858;52.308;20.994;2023-04-30T12:26:24;4.50;;;1.53;;
17482;SDS011;8858;52.308;20.994;2023-04-30T12:29:05;2.30;;;1.60;;
17482;SDS011;8858;52.308;20.994;2023-04-30T12:31:41;5.17;;;1.90;;
17482;SDS011;8858;52.308;20.994;2023-04-30T12:34:11;2.63;;;1.73;;
17482;SDS011;8858;52.308;20.994;2023-04-30T12:36:41;2.63;;;1.30;;
17482;SDS011;8858;52.308;20.994;2023-04-30T12:39:10;2.13;;;1.30;;
17482;SDS011;8858;52.308;20.994;2023-04-30T12:41:44;3.57;;;1.27;;
17482;SDS011;8858;52.308;20.994;2023-04-30T12:44:16;1.47;;;1.37;;
17482;SDS011;8858;52.308;20.994;2023-04-30T12:46:46;2.20;;;1.40;;
17482;SDS011;8858;52.308;20.994;2023-04-30T12:49:24;2.00;;;1.37;;
17482;SDS011;8858;52.308;20.994;2023-04-30T12:51:57;3.47;;;1.50;;
17482;SDS011;8858;52.308;20.994;2023-04-30T12:54:27;4.07;;;1.57;;
17482;SDS011;8858;52.308;20.994;2023-04-30T12:57:01;3.00;;;1.33;;
17482;SDS011;8858;52.308;20.994;2023-04-30T12:59:33;2.37;;;1.30;;
17482;SDS011;8858;52.308;20.994;2023-04-30T13:02:06;4.70;;;1.63;;
17482;SDS011;8858;52.308;20.994;2023-04-30T13:04:38;3.17;;;1.60;;
17482;SDS011;8858;52.308;20.994;2023-04-30T13:07:08;1.93;;;1.30;;
17482;SDS011;8858;52.308;20.994;2023-04-30T13:09:36;3.60;;;1.53;;
17482;SDS011;8858;52.308;20.994;2023-04-30T13:12:05;2.17;;;1.27;;
17482;SDS011;8858;52.308;20.994;2023-04-30T13:14:35;1.87;;;1.40;;
17482;SDS011;8858;52.308;20.994;2023-04-30T13:17:03;5.00;;;1.50;;
17482;SDS011;8858;52.308;20.994;2023-04-30T13:19:33;5.43;;;1.47;;
17482;SDS011;8858;52.308;20.994;2023-04-30T13:22:05;1.57;;;1.40;;
17482;SDS011;8858;52.308;20.994;2023-04-30T13:24:35;1.73;;;1.30;;
17482;SDS011;8858;52.308;20.994;2023-04-30T13:27:03;4.07;;;1.40;;
17482;SDS011;8858;52.308;20.994;2023-04-30T13:29:31;2.50;;;1.33;;
17482;SDS011;8858;52.308;20.994;2023-04-30T13:32:01;1.33;;;1.23;;
17482;SDS011;8858;52.308;20.994;2023-04-30T13:34:32;2.13;;;1.30;;
17482;SDS011;8858;52.308;20.994;2023-04-30T13:37:00;3.10;;;1.50;;
17482;SDS011;8858;52.308;20.994;2023-04-30T13:39:28;2.88;;;1.45;;
17482;SDS011;8858;52.308;20.994;2023-04-30T13:41:57;2.15;;;1.55;;
17482;SDS011;8858;52.308;20.994;2023-04-30T13:44:25;1.58;;;1.40;;
17482;SDS011;8858;52.308;20.994;2023-04-30T13:46:53;3.40;;;1.70;;
17482;SDS011;8858;52.308;20.994;2023-04-30T13:49:23;2.05;;;1.48;;
17482;SDS011;8858;52.308;20.994;2023-04-30T13:51:51;2.47;;;1.25;;
17482;SDS011;8858;52.308;20.994;2023-04-30T13:54:23;2.65;;;1.50;;
17482;SDS011;8858;52.308;20.994;2023-04-30T13:56:51;2.47;;;1.52;;
17482;SDS011;8858;52.308;20.994;2023-04-30T13:59:21;1.83;;;1.30;;
17482;SDS011;8858;52.308;20.994;2023-04-30T14:01:49;2.17;;;1.40;;
17482;SDS011;8858;52.308;20.994;2023-04-30T14:04:18;2.67;;;1.40;;
17482;SDS011;8858;52.308;20.994;2023-04-30T14:06:51;3.10;;;1.30;;
17482;SDS011;8858;52.308;20.994;2023-04-30T14:09:23;2.75;;;1.63;;
17482;SDS011;8858;52.308;20.994;2023-04-30T14:11:52;3.42;;;1.33;;
17482;SDS011;8858;52.308;20.994;2023-04-30T14:14:21;1.73;;;1.40;;
17482;SDS011;8858;52.308;20.994;2023-04-30T14:16:49;1.40;;;1.30;;
17482;SDS011;8858;52.308;20.994;2023-04-30T14:19:18;2.00;;;1.17;;
17482;SDS011;8858;52.308;20.994;2023-04-30T14:21:46;3.95;;;1.67;;
17482;SDS011;8858;52.308;20.994;2023-04-30T14:24:19;4.47;;;1.55;;
17482;SDS011;8858;52.308;20.994;2023-04-30T14:26:47;3.45;;;1.40;;
17482;SDS011;8858;52.308;20.994;2023-04-30T14:29:15;3.67;;;1.63;;
17482;SDS011;8858;52.308;20.994;2023-04-30T14:31:48;2.25;;;1.20;;
17482;SDS011;8858;52.308;20.994;2023-04-30T14:34:16;6.03;;;1.50;;
17482;SDS011;8858;52.308;20.994;2023-04-30T14:36:46;1.75;;;1.40;;
17482;SDS011;8858;52.308;20.994;2023-04-30T14:39:14;1.20;;;1.15;;
17482;SDS011;8858;52.308;20.994;2023-04-30T14:41:44;3.17;;;1.40;;
17482;SDS011;8858;52.308;20.994;2023-04-30T14:44:13;1.30;;;1.20;;
17482;SDS011;8858;52.308;20.994;2023-04-30T14:46:42;3.83;;;1.40;;
17482;SDS011;8858;52.308;20.994;2023-04-30T14:49:14;1.38;;;1.02;;
17482;SDS011;8858;52.308;20.994;2023-04-30T14:51:42;2.50;;;1.42;;
17482;SDS011;8858;52.308;20.994;2023-04-30T14:54:10;1.63;;;1.23;;
17482;SDS011;8858;52.308;20.994;2023-04-30T14:56:39;3.17;;;1.63;;
17482;SDS011;8858;52.308;20.994;2023-04-30T14:59:08;1.70;;;1.30;;
17482;SDS011;8858;52.308;20.994;2023-04-30T15:01:40;2.85;;;1.20;;
17482;SDS011;8858;52.308;20.994;2023-04-30T15:04:09;2.97;;;1.60;;